Time;durP1;ratioP1;P1;durP2;ratioP2;P2;SDS_P1;SDS_P2;PMS_P1;PMS_P2;Temp;Humidity;BMP_temperature;BMP_pressure;BME280_temperature;BME280_humidity;BME280_pressure;Samples;Min_cycle;Max_cycle;Signal;HPM_P1;HPM_P2
2021/06/19 00:00:34;;;;;;;8.15;4.35;;;22.30;99.90;;;;;;5035650;28;20025;-67
2021/06/19 00:02:59;;;;;;;7.68;4.95;;;22.30;99.90;;;;;;5033455;28;20158;-67
2021/06/19 00:05:26;;;;;;;10.35;4.88;;;22.20;99.90;;;;;;5028744;28;20018;-68
2021/06/19 00:07:52;;;;;;;6.80;4.82;;;22.10;99.90;;;;;;5029874;28;20116;-65
2021/06/19 00:10:18;;;;;;;11.50;5.72;;;22.10;99.90;;;;;;5023532;28;20025;-67
2021/06/19 00:12:46;;;;;;;14.75;6.65;;;22.10;99.90;;;;;;5024446;28;20033;-68
2021/06/19 00:15:14;;;;;;;14.85;6.95;;;22.00;99.90;;;;;;5022692;28;20088;-67
2021/06/19 00:17:41;;;;;;;15.25;6.57;;;22.00;99.90;;;;;;5029113;28;20026;-68
2021/06/19 00:20:09;;;;;;;10.48;6.80;;;21.90;99.90;;;;;;5032363;28;20522;-67
2021/06/19 00:22:35;;;;;;;14.63;8.10;;;21.90;99.90;;;;;;5037294;28;20558;-67
2021/06/19 00:25:00;;;;;;;11.55;6.85;;;21.80;99.90;;;;;;5027263;28;20034;-66
2021/06/19 00:27:26;;;;;;;13.52;6.85;;;21.70;99.90;;;;;;5028467;28;20491;-67
2021/06/19 00:29:51;;;;;;;12.30;7.40;;;21.70;99.90;;;;;;5028579;28;20038;-66
2021/06/19 00:32:17;;;;;;;12.20;6.72;;;21.60;99.90;;;;;;5033668;28;20029;-67
2021/06/19 00:34:42;;;;;;;15.73;7.25;;;21.60;99.90;;;;;;5027292;28;20061;-66
2021/06/19 00:37:08;;;;;;;12.45;7.90;;;21.60;99.90;;;;;;5024238;28;20105;-67
2021/06/19 00:39:33;;;;;;;9.10;7.78;;;21.60;99.90;;;;;;5032886;28;20033;-66
2021/06/19 00:42:00;;;;;;;13.13;6.93;;;21.60;99.90;;;;;;5039917;28;20029;-67
2021/06/19 00:44:26;;;;;;;11.13;6.57;;;21.60;99.90;;;;;;5033975;28;20159;-66
2021/06/19 00:46:53;;;;;;;12.23;6.85;;;21.50;99.90;;;;;;5031920;28;20048;-67
2021/06/19 00:49:20;;;;;;;11.98;7.35;;;21.50;99.90;;;;;;5016098;28;20030;-68
2021/06/19 00:51:46;;;;;;;13.02;8.73;;;21.50;99.90;;;;;;5016206;28;20029;-66
2021/06/19 00:54:12;;;;;;;11.32;8.38;;;21.40;99.90;;;;;;5036432;28;20103;-67
2021/06/19 00:56:39;;;;;;;11.15;8.98;;;21.30;99.90;;;;;;5028070;28;20100;-67
2021/06/19 00:59:06;;;;;;;14.10;8.93;;;21.30;99.90;;;;;;5022562;28;20053;-67
2021/06/19 01:01:33;;;;;;;14.70;9.02;;;21.40;99.90;;;;;;5016148;28;20052;-67
2021/06/19 01:04:00;;;;;;;13.07;8.00;;;21.30;99.90;;;;;;5029565;28;20116;-70
2021/06/19 01:06:26;;;;;;;8.98;8.07;;;21.40;99.90;;;;;;5019041;28;20041;-67
2021/06/19 01:08:52;;;;;;;10.15;8.15;;;21.40;99.90;;;;;;5028503;28;20036;-67
2021/06/19 01:11:21;;;;;;;11.50;7.30;;;21.30;99.90;;;;;;5030583;28;20033;-67
2021/06/19 01:13:48;;;;;;;11.27;7.28;;;21.20;99.90;;;;;;5017078;28;20021;-69
2021/06/19 01:16:15;;;;;;;9.07;6.78;;;21.30;99.90;;;;;;5019854;28;20496;-66
2021/06/19 01:18:41;;;;;;;9.75;6.03;;;21.20;99.90;;;;;;5025487;28;20030;-69
2021/06/19 01:21:14;;;;;;;8.73;5.55;;;21.30;99.90;;;;;;5028330;28;20107;-67
2021/06/19 01:23:40;;;;;;;7.53;5.45;;;21.30;99.90;;;;;;5026483;28;20539;-68
2021/06/19 01:26:06;;;;;;;6.10;4.63;;;21.20;99.90;;;;;;5023615;28;20037;-67
2021/06/19 01:28:32;;;;;;;6.03;5.15;;;21.20;99.90;;;;;;5036049;28;20025;-68
2021/06/19 01:30:58;;;;;;;4.70;4.22;;;21.10;99.90;;;;;;5030610;28;20087;-67
2021/06/19 01:33:24;;;;;;;5.65;3.83;;;21.00;99.90;;;;;;5026941;28;20033;-67
2021/06/19 01:35:50;;;;;;;5.75;4.00;;;21.00;99.90;;;;;;5027562;28;20037;-67
2021/06/19 01:38:15;;;;;;;4.38;3.97;;;21.10;99.90;;;;;;5027744;28;20025;-66
2021/06/19 01:40:41;;;;;;;7.32;4.30;;;21.10;99.90;;;;;;5020741;28;20029;-68
2021/06/19 01:43:06;;;;;;;4.72;4.20;;;21.00;99.90;;;;;;5026226;28;20028;-67
2021/06/19 01:45:34;;;;;;;4.90;3.80;;;21.00;99.90;;;;;;5029379;28;20396;-66
2021/06/19 01:48:06;;;;;;;7.45;4.35;;;21.00;99.90;;;;;;5024498;28;20037;-67
2021/06/19 01:50:32;;;;;;;6.35;4.18;;;21.10;99.90;;;;;;5015326;28;20414;-67
2021/06/19 01:52:59;;;;;;;7.93;4.10;;;21.10;99.90;;;;;;5022245;28;20034;-68
2021/06/19 01:55:25;;;;;;;8.00;4.63;;;21.10;99.90;;;;;;5022209;28;20024;-67
2021/06/19 01:57:53;;;;;;;5.45;4.30;;;21.10;99.90;;;;;;5030939;28;20479;-67
2021/06/19 02:00:24;;;;;;;6.38;4.45;;;21.10;99.90;;;;;;5024319;28;20036;-67
2021/06/19 02:02:50;;;;;;;9.25;4.70;;;21.10;99.90;;;;;;5024609;28;20116;-67
2021/06/19 02:05:17;;;;;;;5.90;5.30;;;21.00;99.90;;;;;;5018340;28;20040;-67
2021/06/19 02:07:51;;;;;;;7.95;5.85;;;21.00;99.90;;;;;;5018795;28;20026;-69
2021/06/19 02:10:21;;;;;;;18.95;7.07;;;21.00;99.90;;;;;;5013826;28;20076;-66
2021/06/19 02:12:47;;;;;;;6.68;6.03;;;20.90;99.90;;;;;;5013431;28;20113;-66
2021/06/19 02:15:13;;;;;;;9.20;6.60;;;20.80;99.90;;;;;;5021279;28;20018;-67
2021/06/19 02:17:39;;;;;;;15.27;7.90;;;20.70;99.90;;;;;;5024712;28;20017;-68
2021/06/19 02:20:08;;;;;;;9.32;7.70;;;20.60;99.90;;;;;;5030179;28;20565;-67
2021/06/19 02:22:35;;;;;;;11.13;8.68;;;20.60;99.90;;;;;;5038159;28;20273;-68
2021/06/19 02:25:06;;;;;;;16.55;8.98;;;20.60;99.90;;;;;;5038186;28;20056;-67
2021/06/19 02:27:32;;;;;;;17.53;8.97;;;20.60;99.90;;;;;;5027092;28;20045;-67
2021/06/19 02:29:58;;;;;;;11.63;9.40;;;20.60;99.90;;;;;;5025835;28;20111;-66
2021/06/19 02:32:24;;;;;;;16.70;10.95;;;20.60;99.90;;;;;;5026066;28;20563;-66
2021/06/19 02:34:50;;;;;;;25.33;18.27;;;20.60;99.90;;;;;;5024190;28;20112;-67
2021/06/19 02:37:16;;;;;;;47.60;32.35;;;20.50;99.90;;;;;;5023590;28;20768;-67
2021/06/19 02:39:42;;;;;;;57.75;34.65;;;20.50;99.90;;;;;;5021911;28;20052;-66
2021/06/19 02:42:08;;;;;;;61.90;39.92;;;20.50;99.90;;;;;;5027609;28;20285;-66
2021/06/19 02:44:34;;;;;;;64.70;38.88;;;20.40;99.90;;;;;;5026706;28;20013;-65
2021/06/19 02:46:59;;;;;;;73.65;44.00;;;20.40;99.90;;;;;;5028040;28;20035;-66
2021/06/19 02:49:25;;;;;;;75.65;44.38;;;20.40;99.90;;;;;;5010969;28;20092;-68
2021/06/19 02:51:50;;;;;;;76.43;43.55;;;20.30;99.90;;;;;;5017536;28;20056;-66
2021/06/19 02:54:16;;;;;;;89.07;46.22;;;20.30;99.90;;;;;;5016590;28;20061;-67
2021/06/19 02:56:41;;;;;;;97.40;46.78;;;20.20;99.90;;;;;;5022361;28;20454;-66
2021/06/19 02:59:07;;;;;;;103.47;47.13;;;19.90;99.90;;;;;;5010951;28;20033;-67
2021/06/19 03:01:32;;;;;;;119.47;51.20;;;19.70;99.90;;;;;;5028213;28;20421;-66
2021/06/19 03:03:58;;;;;;;111.90;47.67;;;19.50;99.90;;;;;;5020038;28;20518;-67
2021/06/19 03:06:23;;;;;;;120.80;51.60;;;19.40;99.90;;;;;;5019166;28;20025;-67
2021/06/19 03:08:49;;;;;;;116.35;51.53;;;19.40;99.90;;;;;;5013634;28;20040;-66
2021/06/19 03:11:14;;;;;;;122.72;53.45;;;19.50;99.90;;;;;;5022151;28;20088;-66
2021/06/19 03:13:40;;;;;;;124.07;53.67;;;19.60;99.90;;;;;;5024639;28;20025;-66
2021/06/19 03:16:05;;;;;;;116.53;51.38;;;19.50;99.90;;;;;;5025672;28;20036;-67
2021/06/19 03:18:31;;;;;;;122.82;53.38;;;19.50;99.90;;;;;;5026179;28;20022;-66
2021/06/19 03:20:56;;;;;;;115.50;52.42;;;19.40;99.90;;;;;;5027194;28;20026;-66
2021/06/19 03:23:22;;;;;;;119.07;52.33;;;19.30;99.90;;;;;;5026058;28;20044;-66
2021/06/19 03:25:48;;;;;;;111.70;50.47;;;19.40;99.90;;;;;;5035714;28;20375;-66
2021/06/19 03:28:14;;;;;;;120.47;54.05;;;19.40;99.90;;;;;;5029149;28;20029;-67
2021/06/19 03:30:46;;;;;;;118.95;52.97;;;19.40;99.90;;;;;;5025669;28;20040;-66
2021/06/19 03:33:13;;;;;;;112.88;53.92;;;19.30;99.90;;;;;;5025700;28;20079;-65
2021/06/19 03:35:39;;;;;;;126.55;55.03;;;19.10;99.90;;;;;;5028015;28;20638;-67
2021/06/19 03:38:06;;;;;;;124.93;56.00;;;19.20;99.90;;;;;;5024916;28;20105;-66
2021/06/19 03:40:32;;;;;;;120.75;55.47;;;19.30;99.90;;;;;;5024542;28;20022;-66
2021/06/19 03:42:58;;;;;;;124.22;54.95;;;19.30;99.90;;;;;;5030159;28;20056;-66
2021/06/19 03:45:27;;;;;;;126.20;53.92;;;19.40;99.90;;;;;;5029863;28;20022;-68
2021/06/19 03:47:56;;;;;;;124.78;56.65;;;19.40;99.90;;;;;;5021984;28;20357;-68
2021/06/19 03:50:24;;;;;;;116.68;53.92;;;19.20;99.90;;;;;;5020935;28;20484;-66
2021/06/19 03:52:50;;;;;;;121.57;54.28;;;19.20;99.90;;;;;;5017675;28;20095;-66
2021/06/19 03:55:16;;;;;;;118.03;53.17;;;19.20;99.90;;;;;;5025430;28;20412;-67
2021/06/19 03:57:42;;;;;;;122.45;53.83;;;19.30;99.90;;;;;;5022950;28;20018;-67
2021/06/19 04:00:11;;;;;;;127.85;55.25;;;19.20;99.90;;;;;;5023669;28;20041;-66
2021/06/19 04:02:37;;;;;;;119.18;51.53;;;19.20;99.90;;;;;;5033682;28;20025;-67
2021/06/19 04:05:03;;;;;;;116.47;52.63;;;19.20;99.90;;;;;;5022636;28;20424;-67
2021/06/19 04:07:29;;;;;;;130.05;53.47;;;19.20;99.90;;;;;;5031411;28;20060;-67
2021/06/19 04:09:55;;;;;;;111.95;50.70;;;19.10;99.90;;;;;;5027121;28;20058;-66
2021/06/19 04:12:24;;;;;;;108.85;49.35;;;19.20;99.90;;;;;;5020312;28;20148;-66
2021/06/19 04:14:50;;;;;;;107.82;49.90;;;19.30;99.90;;;;;;5021113;28;20603;-66
2021/06/19 04:17:17;;;;;;;104.32;50.35;;;19.30;99.90;;;;;;5018012;28;20426;-66
2021/06/19 04:19:43;;;;;;;107.13;49.15;;;19.30;99.90;;;;;;5024923;28;20026;-66
2021/06/19 04:22:11;;;;;;;97.30;47.38;;;19.30;99.90;;;;;;5025419;28;20076;-67
2021/06/19 04:24:37;;;;;;;101.32;46.63;;;19.40;99.90;;;;;;5034928;28;21466;-66
2021/06/19 04:27:05;;;;;;;70.53;34.80;;;19.40;99.90;;;;;;5028478;28;20073;-68
2021/06/19 04:29:32;;;;;;;62.47;28.25;;;19.20;99.90;;;;;;5021711;28;20254;-67
2021/06/19 04:31:59;;;;;;;36.42;18.73;;;19.10;99.90;;;;;;5031923;28;20415;-69
2021/06/19 04:34:25;;;;;;;33.88;18.38;;;19.00;99.90;;;;;;5026926;28;20041;-65
2021/06/19 04:36:51;;;;;;;26.88;16.60;;;19.00;99.90;;;;;;5024062;28;20052;-67
2021/06/19 04:39:17;;;;;;;31.45;17.70;;;19.00;99.90;;;;;;5024645;28;20559;-67
2021/06/19 04:41:50;;;;;;;30.52;17.92;;;19.10;99.90;;;;;;5031356;28;20401;-68
2021/06/19 04:46:45;;;;;;;29.13;18.05;;;19.00;99.90;;;;;;5034539;28;20031;-67
2021/06/19 04:49:12;;;;;;;38.47;21.88;;;19.00;99.90;;;;;;5034036;28;20572;-70
2021/06/19 04:51:37;;;;;;;36.35;21.88;;;18.90;99.90;;;;;;5030138;28;20408;-66
2021/06/19 04:54:03;;;;;;;34.50;22.15;;;18.90;99.90;;;;;;5029477;28;20041;-66
2021/06/19 04:56:28;;;;;;;37.55;22.98;;;18.90;99.90;;;;;;5030036;28;20024;-68
2021/06/19 04:58:54;;;;;;;40.33;23.25;;;18.80;99.90;;;;;;5030122;28;20029;-67
2021/06/19 05:01:19;;;;;;;33.88;21.15;;;18.80;99.90;;;;;;5022894;28;20030;-67
2021/06/19 05:03:46;;;;;;;39.40;20.73;;;18.70;99.90;;;;;;5022991;28;20116;-68
2021/06/19 05:06:11;;;;;;;34.60;20.17;;;18.70;99.90;;;;;;5031349;28;20041;-69
2021/06/19 05:08:39;;;;;;;33.22;20.02;;;18.60;99.90;;;;;;5027563;28;20108;-68
2021/06/19 05:11:05;;;;;;;30.13;18.85;;;18.70;99.90;;;;;;5028166;28;20025;-64
2021/06/19 05:13:31;;;;;;;28.13;17.20;;;18.70;99.90;;;;;;5024132;28;20028;-65
2021/06/19 05:15:56;;;;;;;27.60;15.68;;;18.70;99.90;;;;;;5030842;28;20037;-65
2021/06/19 05:18:22;;;;;;;23.60;15.38;;;18.60;99.90;;;;;;5023226;28;20037;-65
2021/06/19 05:20:48;;;;;;;25.83;15.20;;;18.60;99.90;;;;;;5030805;28;20052;-65
2021/06/19 05:23:13;;;;;;;23.63;14.90;;;18.60;99.90;;;;;;5030739;28;20313;-65
2021/06/19 05:25:39;;;;;;;20.58;13.27;;;18.60;99.90;;;;;;5036927;28;20099;-64
2021/06/19 05:28:05;;;;;;;17.33;12.93;;;18.50;99.90;;;;;;5035356;28;20063;-64
2021/06/19 05:30:31;;;;;;;23.25;13.32;;;18.40;99.90;;;;;;5034491;28;20038;-66
2021/06/19 05:32:57;;;;;;;21.95;14.43;;;18.40;99.90;;;;;;5023857;28;20096;-63
2021/06/19 05:35:23;;;;;;;26.10;13.65;;;18.40;99.90;;;;;;5059776;22;20138;-67
2021/06/19 05:37:50;;;;;;;25.67;15.00;;;18.40;99.90;;;;;;5081990;28;20101;-68
2021/06/19 05:40:16;;;;;;;24.48;14.75;;;18.40;99.90;;;;;;5082141;28;20186;-67
2021/06/19 05:42:41;;;;;;;18.98;14.55;;;18.30;99.90;;;;;;5072629;28;20025;-66
2021/06/19 05:45:08;;;;;;;22.98;15.27;;;18.30;99.90;;;;;;5078620;28;20102;-67
2021/06/19 05:47:34;;;;;;;23.85;14.65;;;18.30;99.90;;;;;;5072418;28;20443;-67
2021/06/19 05:50:00;;;;;;;22.38;14.30;;;18.30;99.90;;;;;;5068474;28;20055;-69
2021/06/19 05:52:26;;;;;;;22.98;13.98;;;18.40;99.90;;;;;;5067845;28;20020;-67
2021/06/19 05:54:52;;;;;;;23.25;14.82;;;18.30;99.90;;;;;;5071894;28;20063;-68
2021/06/19 05:57:19;;;;;;;26.33;13.45;;;18.30;99.90;;;;;;5069861;28;20427;-65
2021/06/19 05:59:48;;;;;;;18.38;12.90;;;18.30;99.90;;;;;;5076544;28;20040;-68
2021/06/19 06:02:13;;;;;;;22.73;12.73;;;18.30;99.90;;;;;;5081210;28;20013;-67
2021/06/19 06:04:39;;;;;;;16.10;12.25;;;18.30;99.90;;;;;;5078571;28;20032;-68
2021/06/19 06:07:04;;;;;;;18.13;11.77;;;18.20;99.90;;;;;;5088505;28;20142;-66
2021/06/19 06:09:30;;;;;;;13.65;11.02;;;18.30;99.90;;;;;;5075320;28;20034;-67
2021/06/19 06:11:56;;;;;;;17.52;10.38;;;18.30;99.90;;;;;;5075227;28;20024;-68
2021/06/19 06:14:22;;;;;;;15.57;9.65;;;18.30;99.90;;;;;;5070581;28;20023;-69
2021/06/19 06:16:47;;;;;;;13.70;10.02;;;18.40;99.90;;;;;;5071665;28;20021;-67
2021/06/19 06:19:16;;;;;;;12.80;9.65;;;18.50;99.90;;;;;;5081139;28;20020;-68
2021/06/19 06:21:42;;;;;;;13.93;10.32;;;18.50;99.90;;;;;;5067917;28;20462;-66
2021/06/19 06:24:08;;;;;;;17.95;11.63;;;18.50;99.90;;;;;;5086763;28;20032;-66
2021/06/19 06:26:33;;;;;;;22.58;12.85;;;18.60;99.90;;;;;;5087593;28;20020;-67
2021/06/19 06:28:59;;;;;;;23.50;13.27;;;18.50;99.90;;;;;;5094493;28;20246;-66
2021/06/19 06:31:24;;;;;;;26.75;15.52;;;18.40;99.90;;;;;;5081724;28;20137;-68
2021/06/19 06:33:50;;;;;;;24.55;14.55;;;18.40;99.90;;;;;;5081834;28;20118;-67
2021/06/19 06:36:16;;;;;;;24.38;15.40;;;18.40;99.90;;;;;;5085226;28;20040;-68
2021/06/19 06:38:41;;;;;;;23.67;15.50;;;18.20;99.90;;;;;;5078776;28;20037;-68
2021/06/19 06:41:07;;;;;;;21.40;14.65;;;18.40;99.90;;;;;;5071919;28;20032;-67
2021/06/19 06:43:32;;;;;;;24.40;14.60;;;18.40;99.90;;;;;;5071260;28;20032;-68
2021/06/19 06:45:58;;;;;;;26.80;15.02;;;18.50;99.90;;;;;;5074595;28;20017;-67
2021/06/19 06:48:24;;;;;;;18.75;12.82;;;18.60;99.90;;;;;;5072507;28;20024;-66
2021/06/19 06:50:50;;;;;;;19.13;11.63;;;18.60;99.90;;;;;;5074831;28;20033;-67
2021/06/19 06:53:16;;;;;;;17.85;10.98;;;18.50;99.90;;;;;;5071334;28;20134;-68
2021/06/19 06:55:42;;;;;;;14.00;10.70;;;18.50;99.90;;;;;;5079710;28;20092;-66
2021/06/19 06:58:08;;;;;;;14.63;10.18;;;18.60;99.90;;;;;;5071209;28;20038;-67
2021/06/19 07:00:33;;;;;;;14.50;10.98;;;18.70;99.90;;;;;;5072270;28;20043;-66
2021/06/19 07:02:59;;;;;;;16.45;11.60;;;18.60;99.90;;;;;;5073754;28;20028;-67
2021/06/19 07:05:25;;;;;;;21.40;11.85;;;18.60;99.90;;;;;;5070798;28;20090;-68
2021/06/19 07:07:50;;;;;;;21.50;10.80;;;18.40;99.90;;;;;;5074253;28;20024;-67
2021/06/19 07:10:17;;;;;;;17.33;11.13;;;18.40;99.90;;;;;;5081920;28;20469;-68
2021/06/19 07:12:44;;;;;;;14.68;10.20;;;18.50;99.90;;;;;;5084771;28;20017;-66
2021/06/19 07:15:12;;;;;;;12.75;9.10;;;18.50;99.90;;;;;;5065764;28;20395;-67
2021/06/19 07:17:38;;;;;;;14.85;10.68;;;18.60;99.90;;;;;;5066207;28;20040;-68
2021/06/19 07:20:08;;;;;;;14.13;9.98;;;18.50;99.90;;;;;;5073604;28;20013;-67
2021/06/19 07:22:34;;;;;;;11.32;9.77;;;18.50;99.90;;;;;;5071101;28;20045;-66
2021/06/19 07:25:01;;;;;;;12.77;9.52;;;18.30;99.90;;;;;;5072096;28;20075;-67
2021/06/19 07:27:28;;;;;;;12.25;8.43;;;18.40;99.90;;;;;;5071746;28;20104;-67
2021/06/19 07:29:54;;;;;;;12.15;8.18;;;18.30;99.90;;;;;;5069625;28;20036;-67
2021/06/19 07:32:20;;;;;;;15.63;9.07;;;18.30;99.90;;;;;;5068678;28;20031;-66
2021/06/19 07:34:46;;;;;;;17.10;10.07;;;18.30;99.90;;;;;;5076089;28;20115;-68
2021/06/19 07:37:11;;;;;;;13.68;9.50;;;18.30;99.90;;;;;;5072456;28;20021;-66
2021/06/19 07:39:37;;;;;;;12.75;9.38;;;18.40;99.90;;;;;;5073063;28;20036;-68
2021/06/19 07:42:04;;;;;;;9.77;8.55;;;18.40;99.90;;;;;;5077420;28;20149;-65
2021/06/19 07:44:31;;;;;;;8.57;7.57;;;18.30;99.90;;;;;;5073508;28;20046;-67
2021/06/19 07:47:00;;;;;;;10.45;8.75;;;18.40;99.90;;;;;;5077176;28;20023;-68
2021/06/19 07:49:26;;;;;;;12.73;9.15;;;18.40;99.90;;;;;;5074473;28;20035;-67
2021/06/19 07:51:52;;;;;;;6.78;6.07;;;18.40;99.90;;;;;;5086673;28;20114;-69
2021/06/19 07:54:18;;;;;;;10.52;6.00;;;18.30;99.90;;;;;;5076639;28;20032;-66
2021/06/19 07:56:45;;;;;;;5.70;5.05;;;18.30;99.90;;;;;;5072595;28;20031;-66
2021/06/19 07:59:11;;;;;;;5.70;5.03;;;18.20;99.90;;;;;;5071595;28;20032;-67
2021/06/19 08:01:40;;;;;;;6.38;4.80;;;18.10;99.90;;;;;;5077417;28;20020;-66
2021/06/19 08:04:05;;;;;;;10.00;4.70;;;18.00;99.90;;;;;;5073795;28;20549;-64
2021/06/19 08:06:31;;;;;;;9.50;5.05;;;17.90;99.90;;;;;;5074237;28;20116;-67
2021/06/19 08:08:56;;;;;;;5.50;5.00;;;17.90;99.90;;;;;;5075238;28;20028;-66
2021/06/19 08:11:22;;;;;;;8.07;5.60;;;17.80;99.90;;;;;;5077699;28;20409;-66
2021/06/19 08:13:49;;;;;;;6.03;4.75;;;17.70;99.90;;;;;;5075849;28;20106;-67
2021/06/19 08:16:18;;;;;;;7.75;5.30;;;17.60;99.90;;;;;;5073726;28;20471;-68
2021/06/19 08:18:47;;;;;;;13.00;6.38;;;17.70;99.90;;;;;;5073523;28;20028;-68
2021/06/19 08:21:14;;;;;;;6.95;5.47;;;17.70;99.90;;;;;;5069975;28;20111;-66
2021/06/19 08:23:40;;;;;;;5.70;5.07;;;17.90;99.90;;;;;;5081559;28;20250;-67
2021/06/19 08:26:06;;;;;;;7.20;4.63;;;18.00;99.90;;;;;;5090746;28;20462;-67
2021/06/19 08:28:33;;;;;;;5.82;5.28;;;18.10;99.90;;;;;;5077231;28;20020;-67
2021/06/19 08:30:59;;;;;;;7.18;6.10;;;18.10;99.90;;;;;;5071496;28;20036;-67
2021/06/19 08:33:25;;;;;;;8.70;6.43;;;18.10;99.90;;;;;;5068911;28;20028;-69
2021/06/19 08:35:50;;;;;;;8.15;6.85;;;18.10;99.90;;;;;;5077894;28;20016;-69
2021/06/19 08:38:16;;;;;;;9.05;6.68;;;18.20;99.90;;;;;;5079838;28;20051;-69
2021/06/19 08:40:42;;;;;;;7.45;6.20;;;18.10;99.90;;;;;;5082831;28;20521;-70
2021/06/19 08:43:07;;;;;;;9.38;6.40;;;18.10;99.90;;;;;;5070878;28;20123;-69
2021/06/19 08:45:34;;;;;;;7.95;6.30;;;18.10;99.90;;;;;;5081407;28;20072;-67
2021/06/19 08:48:01;;;;;;;10.82;7.20;;;18.00;99.90;;;;;;5074277;28;20099;-67
2021/06/19 08:50:27;;;;;;;8.13;5.85;;;18.00;99.90;;;;;;5075560;28;20021;-68
2021/06/19 08:52:53;;;;;;;8.98;6.25;;;17.80;99.90;;;;;;5080522;28;20110;-67
2021/06/19 08:55:19;;;;;;;31.42;18.27;;;17.70;99.90;;;;;;5079169;28;20111;-68
2021/06/19 08:57:45;;;;;;;72.00;37.38;;;17.60;99.90;;;;;;5073826;28;20748;-68
2021/06/19 09:00:16;;;;;;;14.57;9.55;;;17.70;99.90;;;;;;5079430;28;20076;-67
2021/06/19 09:02:46;;;;;;;11.20;6.72;;;17.80;99.90;;;;;;5081792;28;20051;-67
2021/06/19 09:05:14;;;;;;;18.85;13.57;;;17.80;99.90;;;;;;5084121;28;20044;-66
2021/06/19 09:07:52;;;;;;;11.95;6.10;;;17.90;99.90;;;;;;5073150;28;20032;-66
2021/06/19 09:10:26;;;;;;;10.70;5.68;;;18.00;99.90;;;;;;5066567;28;20055;-68
2021/06/19 09:12:56;;;;;;;6.35;5.05;;;18.10;99.90;;;;;;5077601;28;20035;-69
2021/06/19 09:15:22;;;;;;;6.70;5.50;;;18.20;99.90;;;;;;5068885;28;20017;-67
2021/06/19 09:18:06;;;;;;;6.63;5.40;;;18.00;99.90;;;;;;5084749;28;20541;-65
2021/06/19 09:20:50;;;;;;;6.55;5.05;;;17.60;99.90;;;;;;5068791;28;20032;-68
2021/06/19 09:23:18;;;;;;;7.68;5.28;;;17.60;99.90;;;;;;5068035;28;20083;-68
2021/06/19 09:25:44;;;;;;;10.85;7.22;;;17.60;99.90;;;;;;5080305;28;20280;-67
2021/06/19 09:28:10;;;;;;;13.98;7.78;;;17.70;99.90;;;;;;5072504;28;20058;-68
2021/06/19 09:30:37;;;;;;;5.45;4.95;;;17.70;99.90;;;;;;5073801;28;20120;-65
2021/06/19 09:33:07;;;;;;;9.50;4.32;;;17.80;99.90;;;;;;5077093;28;20020;-70
2021/06/19 09:35:40;;;;;;;6.35;4.70;;;17.80;99.90;;;;;;5092325;28;20024;-67
2021/06/19 09:38:12;;;;;;;6.45;4.35;;;17.70;99.90;;;;;;5091024;28;20096;-66
2021/06/19 09:40:43;;;;;;;6.85;4.47;;;17.80;99.90;;;;;;5076400;28;20066;-66
2021/06/19 09:43:11;;;;;;;7.43;4.53;;;17.80;99.90;;;;;;5079697;28;20489;-66
2021/06/19 09:45:38;;;;;;;8.23;5.85;;;17.90;99.90;;;;;;5065928;28;20032;-66
2021/06/19 09:48:05;;;;;;;22.48;11.02;;;17.80;99.90;;;;;;5081440;28;20020;-67
2021/06/19 09:50:31;;;;;;;7.65;5.35;;;17.70;99.90;;;;;;5082935;28;20047;-67
2021/06/19 09:53:10;;;;;;;9.57;5.60;;;17.90;99.90;;;;;;5074764;28;20016;-67
2021/06/19 09:55:36;;;;;;;7.40;5.78;;;18.00;99.90;;;;;;5077496;28;20059;-67
2021/06/19 09:58:01;;;;;;;9.60;5.40;;;18.00;99.90;;;;;;5066183;28;20124;-67
2021/06/19 10:00:39;;;;;;;6.22;5.38;;;18.00;99.90;;;;;;5076710;28;20021;-67
2021/06/19 10:03:05;;;;;;;5.97;5.38;;;18.10;99.90;;;;;;5077761;28;20078;-67
2021/06/19 10:05:30;;;;;;;7.75;5.78;;;18.00;99.90;;;;;;5080928;28;20028;-66
2021/06/19 10:07:57;;;;;;;6.95;4.10;;;18.00;99.90;;;;;;5081708;28;20071;-66
2021/06/19 10:10:23;;;;;;;5.70;4.05;;;18.00;99.90;;;;;;5090311;28;20219;-67
2021/06/19 10:12:48;;;;;;;7.60;3.90;;;18.10;99.90;;;;;;5081409;28;20017;-66
2021/06/19 10:15:15;;;;;;;5.25;3.85;;;18.20;99.90;;;;;;5070890;28;20028;-67
2021/06/19 10:17:43;;;;;;;6.30;3.90;;;18.30;99.90;;;;;;5066471;28;20032;-66
2021/06/19 10:20:11;;;;;;;6.97;5.03;;;18.40;99.90;;;;;;5068090;28;20097;-65
2021/06/19 10:22:38;;;;;;;7.80;6.10;;;17.90;99.90;;;;;;5072482;28;20664;-64
2021/06/19 10:25:10;;;;;;;9.45;5.30;;;17.50;99.90;;;;;;5091783;28;20039;-65
2021/06/19 10:27:39;;;;;;;12.93;5.55;;;17.60;99.90;;;;;;5085357;28;20043;-67
2021/06/19 10:30:06;;;;;;;8.25;5.22;;;17.50;99.90;;;;;;5070193;28;20038;-67
2021/06/19 10:32:48;;;;;;;4.60;4.07;;;17.50;99.90;;;;;;5082180;28;20143;-65
2021/06/19 10:35:17;;;;;;;5.82;4.00;;;17.70;99.90;;;;;;5083261;28;20043;-68
2021/06/19 10:37:44;;;;;;;4.68;3.70;;;17.80;99.90;;;;;;5074316;28;20043;-67
2021/06/19 10:40:22;;;;;;;4.50;4.10;;;17.80;99.90;;;;;;5073102;28;20040;-67
2021/06/19 10:42:49;;;;;;;5.57;4.32;;;17.90;99.90;;;;;;5070613;28;20528;-65
2021/06/19 10:45:22;;;;;;;6.95;4.03;;;17.90;99.90;;;;;;5071483;28;20410;-65
2021/06/19 10:47:56;;;;;;;;;;;18.00;99.90;;;;;;5078287;28;20584;-67
2021/06/19 10:50:24;;;;;;;9.88;4.80;;;18.20;99.90;;;;;;5077805;28;20377;-66
2021/06/19 10:53:11;;;;;;;5.55;4.97;;;18.20;99.90;;;;;;5069007;28;20111;-65
2021/06/19 10:55:43;;;;;;;6.60;5.47;;;18.20;99.90;;;;;;5074115;28;20053;-66
2021/06/19 10:58:29;;;;;;;8.75;6.55;;;17.70;99.90;;;;;;5068081;28;20066;-66
2021/06/19 11:01:02;;;;;;;6.80;5.88;;;17.50;99.90;;;;;;5073541;28;20076;-66
2021/06/19 11:03:54;;;;;;;7.07;6.10;;;17.40;99.90;;;;;;5076196;28;20081;-66
2021/06/19 11:06:56;;;;;;;5.50;4.50;;;17.50;99.90;;;;;;5066286;28;20054;-67
2021/06/19 11:09:42;;;;;;;6.33;5.27;;;17.80;99.90;;;;;;5049739;28;20108;-66
2021/06/19 11:12:22;;;;;;;8.10;6.50;;;17.90;99.90;;;;;;5073313;28;20188;-66
2021/06/19 11:14:56;;;;;;;6.95;6.25;;;17.90;99.90;;;;;;5070375;28;20039;-66
2021/06/19 11:17:21;;;;;;;10.43;5.38;;;18.10;99.90;;;;;;5077407;28;20115;-66
2021/06/19 11:19:55;;;;;;;7.65;6.07;;;18.20;99.90;;;;;;5073416;28;20144;-65
2021/06/19 11:22:38;;;;;;;7.72;6.93;;;18.00;99.90;;;;;;5081974;28;20024;-66
2021/06/19 11:25:25;;;;;;;;;;;17.70;99.90;;;;;;5086036;28;20024;-65
2021/06/19 11:27:59;;;;;;;9.38;7.10;;;17.30;99.90;;;;;;5080140;28;19905;-65
2021/06/19 11:30:34;;;;;;;7.97;7.18;;;17.10;99.90;;;;;;5070246;28;20371;-66
2021/06/19 11:33:21;;;;;;;11.55;8.27;;;17.10;99.90;;;;;;5064627;28;20036;-65
2021/06/19 11:36:03;;;;;;;11.20;8.18;;;17.20;99.90;;;;;;5065797;23;20043;-65
2021/06/19 11:38:45;;;;;;;17.98;8.27;;;17.30;99.90;;;;;;5053919;28;20091;-64
2021/06/19 11:41:12;;;;;;;7.25;6.55;;;17.30;99.90;;;;;;5044357;28;20483;-66
2021/06/19 11:43:38;;;;;;;8.77;6.22;;;17.40;99.90;;;;;;5027830;28;20025;-64
2021/06/19 11:46:04;;;;;;;8.15;6.47;;;17.60;99.90;;;;;;5025962;28;20025;-64
2021/06/19 11:48:30;;;;;;;9.15;7.10;;;17.80;99.90;;;;;;5026883;28;20014;-65
2021/06/19 11:51:03;;;;;;;10.75;6.55;;;17.90;99.90;;;;;;5027405;28;20090;-65
2021/06/19 11:53:32;;;;;;;9.43;6.45;;;18.00;99.90;;;;;;5038277;28;20038;-65
2021/06/19 11:56:11;;;;;;;12.40;8.35;;;18.20;99.90;;;;;;5040415;28;20112;-64
2021/06/19 11:59:06;;;;;;;9.13;7.20;;;17.70;99.90;;;;;;5040641;28;20102;-67
2021/06/19 12:01:39;;;;;;;10.85;6.95;;;17.30;99.90;;;;;;5022951;28;20088;-65
2021/06/19 12:04:09;;;;;;;10.95;7.00;;;17.50;99.90;;;;;;5047596;28;20028;-66
2021/06/19 12:06:37;;;;;;;8.63;6.68;;;17.60;99.90;;;;;;5033280;28;20143;-65
2021/06/19 12:09:04;;;;;;;12.00;6.10;;;17.60;99.90;;;;;;5038225;28;20060;-66
2021/06/19 12:11:35;;;;;;;8.45;7.35;;;17.70;99.90;;;;;;5036334;28;20080;-65
2021/06/19 12:14:14;;;;;;;7.28;6.57;;;17.80;99.90;;;;;;5036621;28;20409;-66
2021/06/19 12:16:39;;;;;;;9.63;6.28;;;17.80;99.90;;;;;;5033624;28;20032;-65
2021/06/19 12:19:05;;;;;;;7.55;5.95;;;18.00;99.90;;;;;;5038909;28;20048;-66
2021/06/19 12:21:36;;;;;;;11.75;5.40;;;18.20;99.90;;;;;;5037748;28;20032;-67
2021/06/19 12:24:17;;;;;;;7.60;6.25;;;18.40;99.90;;;;;;5037507;28;20025;-66
2021/06/19 12:26:55;;;;;;;9.23;6.65;;;18.60;99.90;;;;;;5036937;28;20321;-65
2021/06/19 12:29:32;;;;;;;8.13;6.60;;;18.60;99.90;;;;;;5037849;28;20258;-67
2021/06/19 12:31:58;;;;;;;11.40;6.90;;;18.40;99.90;;;;;;5039274;28;20036;-66
2021/06/19 12:34:27;;;;;;;10.52;7.00;;;18.20;99.90;;;;;;5043178;28;20025;-65
2021/06/19 12:36:54;;;;;;;9.18;7.40;;;18.40;99.90;;;;;;5038871;28;20039;-67
2021/06/19 12:39:20;;;;;;;7.65;6.80;;;18.30;99.90;;;;;;5035711;28;20025;-66
2021/06/19 12:41:46;;;;;;;10.88;7.43;;;18.40;99.90;;;;;;5043106;28;20029;-67